Time;durP1;ratioP1;P1;durP2;ratioP2;P2;SDS_P1;SDS_P2;PMS_P1;PMS_P2;Temp;Humidity;BMP_temperature;BMP_pressure;BME280_temperature;BME280_humidity;BME280_pressure;Samples;Min_cycle;Max_cycle;Signal;HPM_P1;HPM_P2
2022/09/26 00:01:51;;;;;;;1.35;0.60;;;11.70;99.90;;;;;;5002997;28;20468;-59
2022/09/26 00:04:20;;;;;;;1.38;0.20;;;11.70;99.90;;;;;;5009424;28;20026;-59
2022/09/26 00:06:47;;;;;;;1.10;0.57;;;11.70;99.90;;;;;;5008947;28;20109;-58
2022/09/26 00:09:14;;;;;;;1.85;0.63;;;11.70;99.90;;;;;;5006726;28;20439;-58
2022/09/26 00:11:41;;;;;;;0.70;0.30;;;11.60;99.90;;;;;;5006312;28;20121;-59
2022/09/26 00:14:11;;;;;;;2.28;0.47;;;11.60;99.90;;;;;;5010410;28;20484;-58
2022/09/26 00:16:39;;;;;;;1.10;0.40;;;11.60;99.90;;;;;;4998558;28;20398;-62
2022/09/26 00:19:05;;;;;;;1.48;0.40;;;11.60;99.90;;;;;;5010819;28;20060;-58
2022/09/26 00:21:31;;;;;;;1.20;0.65;;;11.60;99.90;;;;;;5007860;28;20046;-59
2022/09/26 00:23:59;;;;;;;1.27;0.40;;;11.60;99.90;;;;;;5007910;28;20371;-59
2022/09/26 00:26:27;;;;;;;1.10;0.63;;;11.70;99.90;;;;;;5009379;28;20037;-59
2022/09/26 00:28:55;;;;;;;1.90;0.68;;;11.70;99.90;;;;;;5006915;28;20029;-59
2022/09/26 00:31:24;;;;;;;1.52;0.60;;;11.80;99.90;;;;;;5009072;28;20026;-58
2022/09/26 00:33:50;;;;;;;1.38;0.20;;;11.70;99.90;;;;;;5007703;28;20029;-58
2022/09/26 00:36:16;;;;;;;0.47;0.40;;;11.80;99.90;;;;;;5009092;28;20021;-59
2022/09/26 00:38:43;;;;;;;1.45;0.75;;;11.70;99.90;;;;;;5006659;28;20030;-59
2022/09/26 00:41:09;;;;;;;1.58;0.30;;;11.80;99.90;;;;;;5012701;28;20036;-59
2022/09/26 00:43:45;;;;;;;2.92;1.60;;;11.70;99.90;;;;;;5001273;28;20049;-59
2022/09/26 00:46:13;;;;;;;2.92;0.38;;;11.80;99.90;;;;;;5002524;28;20021;-59
2022/09/26 00:48:42;;;;;;;1.83;0.77;;;11.90;99.90;;;;;;5005241;28;20109;-58
2022/09/26 00:51:08;;;;;;;0.63;0.47;;;11.90;99.90;;;;;;5010611;28;20022;-58
2022/09/26 00:53:47;;;;;;;3.28;0.43;;;11.90;99.90;;;;;;5008049;28;20473;-59
2022/09/26 00:56:21;;;;;;;1.08;0.40;;;11.90;99.90;;;;;;5008927;28;20025;-58
2022/09/26 00:58:53;;;;;;;0.63;0.63;;;11.90;99.90;;;;;;5007496;28;20085;-58
2022/09/26 01:01:19;;;;;;;1.63;0.30;;;11.90;99.90;;;;;;5008074;28;20579;-59
2022/09/26 01:03:47;;;;;;;1.23;0.45;;;11.90;99.90;;;;;;5007866;28;20485;-58
2022/09/26 01:06:15;;;;;;;3.63;0.95;;;12.00;99.90;;;;;;5009758;28;20022;-58
2022/09/26 01:09:00;;;;;;;1.83;0.68;;;12.00;99.90;;;;;;5003959;28;20033;-58
2022/09/26 01:11:28;;;;;;;1.27;0.30;;;12.10;99.90;;;;;;5009014;28;20080;-58
2022/09/26 01:13:55;;;;;;;2.78;0.70;;;12.10;99.90;;;;;;5007749;28;20382;-58
2022/09/26 01:16:21;;;;;;;2.35;0.55;;;12.10;99.90;;;;;;5008388;28;20030;-59
2022/09/26 01:18:47;;;;;;;2.22;0.52;;;12.10;99.90;;;;;;5007769;28;20389;-59
2022/09/26 01:21:54;;;;;;;0.43;0.30;;;12.10;99.90;;;;;;5015153;28;20121;-59
2022/09/26 01:24:49;;;;;;;0.68;0.30;;;12.20;99.90;;;;;;5004565;28;20553;-59
2022/09/26 01:27:39;;;;;;;3.58;0.75;;;12.10;99.90;;;;;;5007760;28;20026;-59
2022/09/26 01:30:11;;;;;;;6.32;0.73;;;12.20;99.90;;;;;;5003482;28;20088;-59
2022/09/26 01:32:49;;;;;;;;;;;12.20;99.90;;;;;;5013879;28;20030;-59
2022/09/26 01:35:46;;;;;;;0.98;0.30;;;12.20;99.90;;;;;;5011713;28;21494;-59
2022/09/26 01:38:30;;;;;;;0.28;0.28;;;12.20;99.90;;;;;;5002678;28;20042;-59
2022/09/26 01:41:31;;;;;;;0.35;0.35;;;12.30;99.90;;;;;;5007227;28;20474;-59
2022/09/26 01:44:29;;;;;;;1.27;0.55;;;12.40;99.90;;;;;;5006765;28;20046;-59
2022/09/26 01:46:58;;;;;;;3.83;0.63;;;12.70;99.90;;;;;;4993312;28;20042;-59
2022/09/26 01:49:43;;;;;;;2.63;0.40;;;12.70;99.90;;;;;;5007508;28;20038;-58
2022/09/26 01:52:30;;;;;;;1.63;0.57;;;12.80;99.90;;;;;;5009477;28;20084;-59
2022/09/26 01:55:20;;;;;;;1.63;0.40;;;12.80;99.90;;;;;;5004863;28;20385;-59
2022/09/26 01:57:49;;;;;;;1.17;0.50;;;12.80;99.90;;;;;;5009006;28;20026;-59
2022/09/26 02:00:17;;;;;;;2.17;0.52;;;12.90;99.90;;;;;;5013231;28;20129;-59
2022/09/26 02:02:46;;;;;;;2.25;0.40;;;12.80;99.90;;;;;;5011103;28;20063;-59
2022/09/26 02:05:21;;;;;;;1.13;0.40;;;12.90;99.90;;;;;;5010128;28;20029;-59
2022/09/26 02:07:55;;;;;;;1.02;0.35;;;12.90;99.90;;;;;;5010029;28;20034;-59
2022/09/26 02:10:49;;;;;;;1.33;0.43;;;12.90;99.90;;;;;;5009879;28;20034;-59
2022/09/26 02:13:28;;;;;;;1.55;0.40;;;13.00;99.90;;;;;;5004594;28;20025;-59
2022/09/26 02:15:59;;;;;;;0.28;0.20;;;13.00;99.90;;;;;;5010581;28;20116;-59
2022/09/26 02:18:32;;;;;;;5.82;0.93;;;13.00;99.90;;;;;;5011333;28;20037;-58
2022/09/26 02:21:08;;;;;;;0.20;0.20;;;13.00;99.90;;;;;;5007384;28;20036;-58
2022/09/26 02:23:34;;;;;;;2.70;0.55;;;13.00;99.90;;;;;;5011568;28;20543;-58
2022/09/26 02:26:00;;;;;;;5.32;0.60;;;13.00;99.90;;;;;;5012892;28;20025;-58
2022/09/26 02:28:27;;;;;;;0.40;0.28;;;13.00;99.90;;;;;;5012856;28;20031;-58
2022/09/26 02:30:54;;;;;;;1.67;0.30;;;13.10;99.90;;;;;;5011146;28;20135;-58
2022/09/26 02:33:20;;;;;;;0.30;0.20;;;13.10;99.90;;;;;;5011852;28;20026;-57
2022/09/26 02:35:53;;;;;;;2.30;0.70;;;13.10;99.90;;;;;;5010946;28;20034;-59
2022/09/26 02:38:29;;;;;;;1.70;0.30;;;13.10;99.90;;;;;;5011826;28;20096;-60
2022/09/26 02:41:21;;;;;;;1.00;0.40;;;13.20;99.90;;;;;;5003485;28;20026;-57
2022/09/26 02:43:50;;;;;;;2.30;0.60;;;13.20;99.90;;;;;;5008816;28;20512;-61
2022/09/26 02:46:43;;;;;;;3.47;0.50;;;13.10;99.90;;;;;;5012287;28;20030;-57
2022/09/26 02:49:20;;;;;;;1.30;0.40;;;13.10;99.90;;;;;;5005830;28;20026;-59
2022/09/26 02:51:58;;;;;;;1.02;0.20;;;13.10;99.90;;;;;;5005819;28;20469;-58
2022/09/26 02:54:35;;;;;;;0.95;0.52;;;13.10;99.90;;;;;;5012142;28;20058;-58
2022/09/26 02:57:31;;;;;;;3.88;0.60;;;13.10;99.90;;;;;;5011572;28;20030;-59
2022/09/26 03:00:03;;;;;;;4.75;0.30;;;13.10;99.90;;;;;;5010106;28;20032;-58
2022/09/26 03:02:47;;;;;;;3.80;0.50;;;13.10;99.90;;;;;;5010272;28;20069;-58
2022/09/26 03:05:25;;;;;;;1.75;0.45;;;13.20;99.90;;;;;;5011021;28;20120;-58
2022/09/26 03:08:04;;;;;;;0.60;0.30;;;13.20;99.90;;;;;;5008800;28;20028;-58
2022/09/26 03:10:31;;;;;;;3.72;0.32;;;13.10;99.90;;;;;;5004780;28;20025;-58
2022/09/26 03:13:05;;;;;;;4.00;0.38;;;13.20;99.90;;;;;;5009187;28;20473;-59
2022/09/26 03:15:33;;;;;;;0.63;0.30;;;13.30;99.90;;;;;;5004602;28;20112;-58
2022/09/26 03:18:02;;;;;;;2.15;0.75;;;13.30;99.90;;;;;;5008900;28;20026;-58
2022/09/26 03:20:28;;;;;;;0.93;0.43;;;13.30;99.90;;;;;;5012138;28;20057;-58
2022/09/26 03:22:54;;;;;;;3.33;0.60;;;13.30;99.90;;;;;;5004919;28;20076;-58
2022/09/26 03:25:23;;;;;;;1.30;0.50;;;13.30;99.90;;;;;;5007437;28;20026;-58
2022/09/26 03:27:49;;;;;;;1.38;0.30;;;13.30;99.90;;;;;;5004554;28;20069;-58
2022/09/26 03:30:16;;;;;;;0.90;0.40;;;13.30;99.90;;;;;;5012227;28;20088;-58
2022/09/26 03:32:42;;;;;;;1.77;0.65;;;13.30;99.90;;;;;;5003187;28;20034;-58
2022/09/26 03:35:09;;;;;;;3.05;0.60;;;13.30;99.90;;;;;;5010530;28;20033;-58
2022/09/26 03:37:36;;;;;;;2.47;0.30;;;13.40;99.90;;;;;;5008891;28;20109;-59
2022/09/26 03:40:08;;;;;;;2.78;0.55;;;13.50;99.90;;;;;;5008185;28;20149;-58
2022/09/26 03:42:35;;;;;;;1.65;0.40;;;13.50;99.90;;;;;;5013352;23;20053;-60
2022/09/26 03:45:02;;;;;;;0.73;0.30;;;13.60;99.90;;;;;;4989348;28;20085;-58
2022/09/26 03:47:29;;;;;;;0.88;0.40;;;13.60;99.90;;;;;;4991570;28;20418;-59
2022/09/26 03:49:55;;;;;;;2.67;0.55;;;13.70;99.90;;;;;;4989202;28;20042;-60
2022/09/26 03:52:23;;;;;;;2.97;0.60;;;13.80;99.90;;;;;;4985478;28;20050;-59
2022/09/26 03:54:49;;;;;;;1.90;0.40;;;13.80;99.90;;;;;;4989824;28;20132;-59
2022/09/26 03:57:16;;;;;;;2.58;0.77;;;13.80;99.90;;;;;;4991013;28;20463;-60
2022/09/26 03:59:42;;;;;;;0.85;0.40;;;13.80;99.90;;;;;;4989449;28;20057;-59
2022/09/26 04:02:08;;;;;;;1.13;0.47;;;13.90;99.90;;;;;;4989751;28;20093;-58
2022/09/26 04:04:35;;;;;;;1.23;0.63;;;13.90;99.90;;;;;;4982950;28;20026;-58
2022/09/26 04:07:00;;;;;;;1.77;0.45;;;14.00;99.90;;;;;;4985954;28;20072;-58
2022/09/26 04:09:26;;;;;;;2.75;0.30;;;14.00;99.90;;;;;;4991480;28;20049;-58
2022/09/26 04:11:53;;;;;;;3.17;0.40;;;14.00;99.90;;;;;;4988225;28;20031;-57
2022/09/26 04:14:19;;;;;;;1.23;0.22;;;14.00;99.90;;;;;;4987373;28;20521;-59
2022/09/26 04:16:45;;;;;;;1.40;0.38;;;14.10;99.90;;;;;;4986536;28;20030;-57
2022/09/26 04:19:12;;;;;;;6.18;0.40;;;14.10;99.90;;;;;;4989942;28;20137;-58
2022/09/26 04:21:39;;;;;;;1.05;0.63;;;14.00;99.90;;;;;;4987861;28;20061;-57
2022/09/26 04:24:15;;;;;;;0.47;0.20;;;14.00;99.90;;;;;;4990954;28;20034;-58
2022/09/26 04:26:44;;;;;;;2.20;0.93;;;14.00;99.90;;;;;;4989123;28;20120;-58
2022/09/26 04:29:10;;;;;;;1.33;0.50;;;13.90;99.90;;;;;;4988926;28;20066;-57
2022/09/26 04:31:36;;;;;;;2.05;0.98;;;13.80;99.90;;;;;;4988272;28;20080;-58
2022/09/26 04:34:05;;;;;;;2.20;0.60;;;13.80;99.90;;;;;;4989847;28;20371;-58
2022/09/26 04:36:31;;;;;;;3.05;0.95;;;13.70;99.90;;;;;;4990031;28;20395;-58
2022/09/26 04:38:58;;;;;;;1.23;0.35;;;13.70;99.90;;;;;;4989222;28;20038;-57
2022/09/26 04:41:24;;;;;;;1.40;0.32;;;13.70;99.90;;;;;;4990308;28;20038;-57
2022/09/26 04:43:52;;;;;;;5.75;0.95;;;13.70;99.90;;;;;;4987320;28;21252;-57
2022/09/26 04:46:21;;;;;;;1.70;0.45;;;13.70;99.90;;;;;;4984028;28;20026;-58
2022/09/26 04:48:48;;;;;;;6.43;0.95;;;13.60;99.90;;;;;;4987588;28;20389;-57
2022/09/26 04:51:15;;;;;;;5.90;0.90;;;13.50;99.90;;;;;;4990687;28;20030;-57
2022/09/26 04:53:41;;;;;;;5.68;0.50;;;13.60;99.90;;;;;;4988191;28;20023;-58
2022/09/26 04:56:10;;;;;;;0.65;0.20;;;13.60;99.90;;;;;;4989685;28;20033;-58
2022/09/26 04:59:19;;;;;;;2.35;0.45;;;13.50;99.90;;;;;;4987238;28;20142;-59
2022/09/26 05:01:46;;;;;;;5.35;0.65;;;13.50;99.90;;;;;;4979044;28;20109;-58
2022/09/26 05:04:12;;;;;;;7.93;0.47;;;13.30;99.90;;;;;;4989636;28;20030;-59
2022/09/26 05:06:38;;;;;;;0.25;0.20;;;13.20;99.90;;;;;;4983846;28;20023;-60
2022/09/26 05:09:04;;;;;;;2.05;0.40;;;13.10;99.90;;;;;;4988966;28;20037;-61
2022/09/26 05:11:31;;;;;;;5.43;0.93;;;13.00;99.90;;;;;;4989918;28;20126;-62
2022/09/26 05:14:00;;;;;;;2.28;0.90;;;13.00;99.90;;;;;;4988297;28;20105;-65
2022/09/26 05:16:27;;;;;;;3.05;0.80;;;12.90;99.90;;;;;;4979120;28;20339;-62
2022/09/26 05:18:53;;;;;;;3.15;0.60;;;12.90;99.90;;;;;;4986739;28;20056;-64
2022/09/26 05:21:19;;;;;;;3.05;0.30;;;12.80;99.90;;;;;;4989483;28;20046;-63
2022/09/26 05:26:48;;;;;;;1.33;0.40;;;12.70;99.90;;;;;;4965630;28;20049;-63
2022/09/26 05:29:15;;;;;;;0.77;0.20;;;12.80;99.90;;;;;;4973809;28;20045;-64
2022/09/26 05:31:42;;;;;;;2.53;0.40;;;12.80;99.90;;;;;;4972823;28;20055;-63
2022/09/26 05:34:12;;;;;;;0.77;0.15;;;12.90;99.90;;;;;;4975152;28;20031;-63
2022/09/26 05:36:38;;;;;;;0.88;0.20;;;12.80;99.90;;;;;;4971514;28;20027;-61
2022/09/26 05:40:55;;;;;;;0.43;0.25;;;12.80;99.90;;;;;;4970999;28;20026;-65
2022/09/26 05:41:53;;;;;;;3.20;0.30;;;12.80;99.90;;;;;;4971029;28;20026;-63
2022/09/26 05:44:19;;;;;;;0.75;0.40;;;12.90;99.90;;;;;;4974604;28;20035;-62
2022/09/26 05:46:46;;;;;;;0.50;0.10;;;12.90;99.90;;;;;;4954058;28;20031;-62
2022/09/26 05:49:13;;;;;;;0.63;0.10;;;13.00;99.90;;;;;;4969583;28;20065;-62
2022/09/26 05:51:40;;;;;;;0.25;0.20;;;13.00;99.90;;;;;;4972710;28;20050;-63
2022/09/26 05:54:06;;;;;;;1.27;0.20;;;13.00;99.90;;;;;;4974470;28;20027;-62
2022/09/26 05:56:36;;;;;;;0.20;0.10;;;13.00;99.90;;;;;;4973353;28;20078;-61
2022/09/26 05:59:02;;;;;;;0.55;0.20;;;13.10;99.90;;;;;;4973615;28;20575;-62
2022/09/26 06:01:28;;;;;;;1.70;0.20;;;13.20;99.90;;;;;;4975174;28;20439;-61
2022/09/26 06:03:54;;;;;;;0.22;0.22;;;13.20;99.90;;;;;;4990964;28;20475;-61
2022/09/26 06:06:20;;;;;;;2.30;0.50;;;13.30;99.90;;;;;;4995226;28;20072;-60
2022/09/26 06:08:47;;;;;;;0.98;0.25;;;13.30;99.90;;;;;;4993341;28;20026;-60
2022/09/26 06:11:16;;;;;;;1.98;0.20;;;13.40;99.90;;;;;;4994201;28;20025;-60
2022/09/26 06:13:44;;;;;;;3.72;0.40;;;13.40;99.90;;;;;;4992975;28;20065;-60
2022/09/26 06:16:13;;;;;;;0.30;0.30;;;13.50;99.90;;;;;;4994571;28;20023;-60
2022/09/26 06:18:40;;;;;;;3.00;0.22;;;13.50;99.90;;;;;;4994524;28;20127;-59
2022/09/26 06:21:08;;;;;;;2.90;0.50;;;13.50;99.90;;;;;;4994795;28;20109;-59
2022/09/26 06:23:35;;;;;;;0.20;0.20;;;13.60;99.90;;;;;;4994689;28;20060;-59
2022/09/26 06:26:02;;;;;;;3.42;0.40;;;13.60;99.90;;;;;;4988277;28;20027;-59
2022/09/26 06:28:29;;;;;;;1.55;0.22;;;13.60;99.90;;;;;;4995500;28;20046;-58
2022/09/26 06:30:56;;;;;;;4.78;0.30;;;13.70;99.90;;;;;;4993229;28;20509;-59
2022/09/26 06:33:22;;;;;;;1.40;0.30;;;13.70;99.90;;;;;;4995659;28;20034;-60
2022/09/26 06:35:58;;;;;;;5.10;1.77;;;13.80;99.90;;;;;;4993164;28;20080;-59
2022/09/26 06:38:24;;;;;;;1.08;0.40;;;13.80;99.90;;;;;;4994385;28;20031;-59
2022/09/26 06:40:53;;;;;;;12.38;4.07;;;13.80;99.90;;;;;;4987057;28;20095;-59
2022/09/26 06:43:20;;;;;;;11.85;1.50;;;13.80;99.90;;;;;;4991031;28;20054;-60
2022/09/26 06:45:47;;;;;;;3.03;0.70;;;13.90;99.90;;;;;;4989362;28;20031;-59
2022/09/26 06:48:14;;;;;;;7.50;0.63;;;13.90;99.90;;;;;;4990613;28;20053;-59
2022/09/26 06:50:39;;;;;;;2.28;0.52;;;13.90;99.90;;;;;;4988621;28;20055;-60
2022/09/26 06:53:05;;;;;;;0.88;0.30;;;14.00;99.90;;;;;;4992310;28;20041;-58
2022/09/26 06:55:31;;;;;;;5.53;0.70;;;14.00;99.90;;;;;;4991243;28;20026;-59
2022/09/26 06:57:57;;;;;;;1.40;0.40;;;13.90;99.90;;;;;;4989424;28;20030;-59
2022/09/26 07:00:24;;;;;;;1.27;0.30;;;14.00;99.90;;;;;;4991767;28;20032;-59
2022/09/26 07:02:51;;;;;;;2.85;0.65;;;14.00;99.90;;;;;;4988275;28;20069;-59
2022/09/26 07:05:22;;;;;;;1.65;0.60;;;14.00;99.90;;;;;;4990123;28;20033;-59
2022/09/26 07:07:48;;;;;;;1.08;0.70;;;14.00;99.90;;;;;;4988461;28;20036;-60
2022/09/26 07:10:18;;;;;;;2.83;0.95;;;14.00;99.90;;;;;;4991384;28;20026;-59
2022/09/26 07:12:45;;;;;;;1.90;0.43;;;14.00;99.90;;;;;;4988267;28;20054;-59
2022/09/26 07:15:16;;;;;;;4.47;0.90;;;14.00;99.90;;;;;;4991494;28;20030;-59
2022/09/26 07:17:43;;;;;;;2.95;0.50;;;14.10;99.90;;;;;;4989964;28;20116;-59
2022/09/26 07:20:14;;;;;;;3.55;0.57;;;14.10;99.90;;;;;;4991319;28;20041;-60
2022/09/26 07:22:42;;;;;;;1.90;0.40;;;14.20;99.90;;;;;;4983279;28;20551;-60
2022/09/26 07:25:08;;;;;;;1.85;0.68;;;14.20;99.90;;;;;;4989260;28;20018;-58
2022/09/26 07:27:34;;;;;;;0.28;0.28;;;14.20;99.90;;;;;;4990796;28;20092;-60
2022/09/26 07:30:01;;;;;;;1.50;0.50;;;14.20;99.90;;;;;;4989962;28;20370;-60
2022/09/26 07:32:30;;;;;;;5.88;2.30;;;14.20;99.90;;;;;;4991569;28;20030;-59
2022/09/26 07:34:58;;;;;;;4.53;0.40;;;14.30;99.90;;;;;;4989550;28;20030;-60
2022/09/26 07:37:24;;;;;;;3.10;0.30;;;14.30;99.90;;;;;;4989735;28;20092;-59
2022/09/26 07:39:50;;;;;;;0.30;0.20;;;14.20;99.90;;;;;;4988049;28;20034;-59
2022/09/26 07:42:17;;;;;;;2.38;1.05;;;14.20;99.90;;;;;;4990543;28;20414;-60
2022/09/26 07:44:44;;;;;;;0.95;0.80;;;14.20;99.90;;;;;;4988528;28;20046;-60
2022/09/26 07:50:14;;;;;;;1.15;0.35;;;14.20;99.90;;;;;;4988297;28;20082;-60
2022/09/26 07:52:41;;;;;;;1.10;0.50;;;14.20;99.90;;;;;;4985979;28;20410;-59
2022/09/26 07:55:09;;;;;;;0.60;0.20;;;14.20;99.90;;;;;;4988826;28;20022;-58
2022/09/26 07:57:35;;;;;;;0.68;0.38;;;14.30;99.90;;;;;;4989675;28;20045;-59
2022/09/26 08:00:08;;;;;;;1.35;0.43;;;14.30;99.90;;;;;;4985264;28;20029;-58
2022/09/26 08:02:34;;;;;;;1.80;0.47;;;14.30;99.90;;;;;;4981939;28;20042;-58
2022/09/26 08:05:04;;;;;;;1.15;0.65;;;14.20;99.90;;;;;;4987083;28;20022;-59
2022/09/26 08:07:34;;;;;;;1.35;0.20;;;14.30;99.90;;;;;;4985582;28;20040;-59
2022/09/26 08:10:03;;;;;;;0.85;0.45;;;14.30;99.90;;;;;;4983003;28;20108;-58
2022/09/26 08:12:37;;;;;;;1.67;0.63;;;14.20;99.90;;;;;;4986815;28;20088;-58
2022/09/26 08:15:05;;;;;;;0.43;0.30;;;14.20;99.90;;;;;;4981006;28;20473;-59
2022/09/26 08:17:32;;;;;;;3.15;0.85;;;14.30;99.90;;;;;;4978304;28;20034;-59
2022/09/26 08:20:01;;;;;;;0.50;0.20;;;14.30;99.90;;;;;;4981993;28;20085;-59
2022/09/26 08:22:27;;;;;;;0.75;0.55;;;14.40;99.90;;;;;;4983200;28;20117;-59
2022/09/26 08:24:54;;;;;;;0.95;0.25;;;14.40;99.90;;;;;;4983381;28;20165;-59
2022/09/26 08:27:21;;;;;;;0.20;0.20;;;14.50;99.90;;;;;;4985496;28;20081;-58
2022/09/26 08:29:50;;;;;;;1.67;0.35;;;14.40;99.90;;;;;;4984385;28;20030;-60
2022/09/26 08:32:18;;;;;;;2.10;0.38;;;14.60;99.90;;;;;;4985724;28;20026;-59
2022/09/26 08:34:44;;;;;;;1.90;0.30;;;14.60;99.90;;;;;;4984711;28;20065;-59
2022/09/26 08:37:10;;;;;;;0.45;0.25;;;14.60;99.90;;;;;;4986456;28;20034;-60
2022/09/26 08:39:36;;;;;;;1.40;0.20;;;14.50;99.90;;;;;;4983596;28;20058;-59
2022/09/26 08:42:22;;;;;;;0.10;0.10;;;14.40;99.90;;;;;;4983823;28;20077;-59
2022/09/26 08:44:57;;;;;;;0.63;0.30;;;14.30;99.90;;;;;;4982859;28;20418;-59
2022/09/26 08:47:42;;;;;;;0.25;0.20;;;14.10;99.90;;;;;;4983619;28;20030;-58
2022/09/26 08:50:21;;;;;;;1.20;0.50;;;14.20;99.90;;;;;;4981728;28;20437;-58
2022/09/26 08:53:09;;;;;;;0.77;0.25;;;14.20;99.90;;;;;;4980610;28;20407;-58
2022/09/26 08:55:40;;;;;;;4.05;0.47;;;14.50;99.90;;;;;;4981560;28;20034;-59
2022/09/26 08:58:20;;;;;;;0.30;0.17;;;14.60;99.90;;;;;;4984160;28;20065;-57
2022/09/26 09:00:50;;;;;;;1.13;0.50;;;14.90;99.90;;;;;;4983704;28;20494;-58
2022/09/26 09:03:57;;;;;;;0.77;0.30;;;15.10;99.90;;;;;;4984638;28;20038;-59
2022/09/26 09:06:27;;;;;;;3.67;0.63;;;15.10;99.90;;;;;;4981722;28;20126;-58
2022/09/26 09:08:55;;;;;;;1.77;0.30;;;15.00;99.90;;;;;;4983427;28;20061;-59
2022/09/26 09:11:45;;;;;;;2.38;0.43;;;15.00;99.90;;;;;;4984015;28;20026;-58
2022/09/26 09:14:26;;;;;;;1.60;0.32;;;15.30;99.90;;;;;;4978564;28;20354;-59
2022/09/26 09:16:54;;;;;;;2.00;0.25;;;15.50;99.90;;;;;;4981696;28;20034;-60
2022/09/26 09:19:41;;;;;;;2.80;0.68;;;15.40;99.90;;;;;;4985486;28;20037;-59
2022/09/26 09:22:31;;;;;;;7.30;1.23;;;15.20;99.90;;;;;;4984819;28;20040;-59
2022/09/26 09:25:03;;;;;;;5.00;1.27;;;14.90;99.90;;;;;;4981800;28;20074;-59
2022/09/26 09:28:11;;;;;;;4.45;0.80;;;14.50;99.90;;;;;;4982154;28;20030;-58
2022/09/26 09:30:47;;;;;;;3.63;0.68;;;14.30;99.90;;;;;;4978830;28;20056;-59
2022/09/26 09:33:22;;;;;;;3.67;0.70;;;14.10;99.90;;;;;;4983837;28;20454;-59
2022/09/26 09:35:50;;;;;;;6.10;0.70;;;14.00;99.90;;;;;;4981787;28;20049;-59
2022/09/26 09:38:25;;;;;;;4.88;0.45;;;13.90;99.90;;;;;;4986151;28;20433;-59
2022/09/26 09:41:15;;;;;;;7.30;1.23;;;13.90;99.90;;;;;;4983515;28;20041;-58
2022/09/26 09:43:54;;;;;;;4.90;0.93;;;14.10;99.90;;;;;;4978473;28;20101;-59
2022/09/26 09:46:41;;;;;;;9.68;1.35;;;14.20;99.90;;;;;;4984761;28;20100;-59
2022/09/26 09:49:08;;;;;;;8.93;1.27;;;14.50;99.90;;;;;;4976375;28;20505;-59
2022/09/26 09:52:11;;;;;;;6.68;1.33;;;14.60;99.90;;;;;;4984122;28;20490;-58
2022/09/26 09:55:14;;;;;;;10.57;2.05;;;14.80;99.90;;;;;;4979927;28;20042;-58
2022/09/26 09:58:10;;;;;;;4.45;1.23;;;15.00;99.90;;;;;;4978031;28;20023;-58
2022/09/26 10:00:46;;;;;;;4.88;0.75;;;15.30;99.90;;;;;;4982987;28;20026;-58
2022/09/26 10:03:24;;;;;;;7.72;1.45;;;15.70;99.90;;;;;;4985083;28;20490;-57
2022/09/26 10:05:56;;;;;;;6.63;1.30;;;16.10;99.90;;;;;;4978736;28;20529;-57
2022/09/26 10:08:40;;;;;;;9.70;1.88;;;16.40;99.90;;;;;;4984100;28;20034;-58
2022/09/26 10:11:21;;;;;;;7.15;1.63;;;16.60;99.90;;;;;;4984469;28;20630;-57
2022/09/26 10:13:49;;;;;;;6.82;1.05;;;16.60;99.90;;;;;;4980635;28;20118;-58
2022/09/26 10:16:15;;;;;;;10.80;1.67;;;16.30;99.90;;;;;;4988641;28;20081;-58
2022/09/26 10:18:59;;;;;;;5.63;1.17;;;16.10;99.90;;;;;;4985799;28;20038;-58
2022/09/26 10:21:34;;;;;;;7.43;1.23;;;15.70;99.90;;;;;;4988849;28;20461;-58
2022/09/26 10:24:01;;;;;;;5.07;1.13;;;15.40;99.90;;;;;;4987791;28;20050;-59
2022/09/26 10:26:33;;;;;;;6.45;1.58;;;15.30;99.90;;;;;;4987452;28;20406;-60
2022/09/26 10:29:05;;;;;;;7.30;1.85;;;15.30;99.90;;;;;;4986798;28;20026;-59
2022/09/26 10:31:41;;;;;;;9.32;1.58;;;15.30;99.90;;;;;;4986620;28;20065;-59
2022/09/26 10:34:23;;;;;;;7.82;1.38;;;15.40;99.90;;;;;;4983172;28;20026;-59
2022/09/26 10:36:48;;;;;;;8.75;1.38;;;15.50;99.90;;;;;;4984160;28;20030;-59
2022/09/26 10:42:12;;;;;;;5.97;1.80;;;16.30;99.90;;;;;;4989199;28;20129;-59
2022/09/26 10:44:38;;;;;;;16.27;2.55;;;16.60;99.90;;;;;;4983675;28;20057;-59
2022/09/26 10:47:08;;;;;;;11.05;1.83;;;16.40;99.90;;;;;;4987846;28;20026;-59
2022/09/26 10:50:15;;;;;;;10.13;2.38;;;16.40;99.90;;;;;;4981835;28;20034;-59
2022/09/26 10:53:09;;;;;;;6.55;1.58;;;16.50;99.90;;;;;;4987025;28;20414;-58
2022/09/26 10:55:41;;;;;;;5.93;1.73;;;16.80;99.90;;;;;;4983713;28;20054;-59
2022/09/26 10:58:16;;;;;;;7.85;1.15;;;17.10;99.90;;;;;;4983118;28;20491;-59
2022/09/26 11:00:50;;;;;;;7.63;1.48;;;17.40;99.90;;;;;;4984557;28;20035;-58
2022/09/26 11:03:23;;;;;;;7.07;1.48;;;17.10;99.90;;;;;;4988734;28;20038;-58
2022/09/26 11:05:56;;;;;;;7.88;1.77;;;16.70;99.90;;;;;;4985562;28;20034;-58
2022/09/26 11:08:28;;;;;;;7.93;1.30;;;17.10;99.90;;;;;;4987482;28;20042;-58
2022/09/26 11:11:10;;;;;;;8.57;1.55;;;17.00;99.90;;;;;;4985132;28;20034;-58
2022/09/26 11:13:48;;;;;;;9.40;1.48;;;16.50;99.90;;;;;;4984049;28;20034;-58
2022/09/26 11:16:17;;;;;;;7.72;1.63;;;17.10;99.90;;;;;;4986974;28;20038;-58
2022/09/26 11:19:07;;;;;;;6.18;1.17;;;18.00;99.90;;;;;;4983361;28;20046;-58
2022/09/26 11:21:46;;;;;;;5.25;0.95;;;18.40;99.90;;;;;;4985067;28;20386;-59
2022/09/26 11:24:58;;;;;;;4.07;1.27;;;18.60;99.90;;;;;;4981062;28;20506;-59
2022/09/26 11:27:30;;;;;;;6.80;0.80;;;18.90;99.90;;;;;;4983077;28;20486;-59
2022/09/26 11:30:08;;;;;;;6.72;0.93;;;19.10;99.90;;;;;;4984911;28;20032;-58
2022/09/26 11:32:42;;;;;;;7.30;1.00;;;19.40;99.90;;;;;;4985987;28;20157;-59
2022/09/26 11:35:51;;;;;;;5.05;1.40;;;19.60;99.90;;;;;;4986964;28;20026;-58
2022/09/26 11:38:45;;;;;;;4.32;1.58;;;18.90;99.90;;;;;;4986903;28;20058;-59
2022/09/26 11:41:36;;;;;;;4.88;1.42;;;17.60;99.90;;;;;;4983880;28;20085;-58
2022/09/26 11:44:16;;;;;;;8.77;1.50;;;17.00;99.90;;;;;;4986872;28;20050;-57
2022/09/26 11:47:00;;;;;;;6.65;1.25;;;17.40;99.90;;;;;;4983698;28;20503;-58
2022/09/26 11:49:32;;;;;;;5.80;1.38;;;18.50;99.90;;;;;;4984094;28;20026;-58
2022/09/26 11:52:01;;;;;;;3.72;1.00;;;18.70;99.90;;;;;;4981272;28;20027;-59
2022/09/26 11:54:32;;;;;;;6.10;1.13;;;18.90;99.90;;;;;;4986458;28;20108;-57
2022/09/26 11:57:31;;;;;;;4.15;1.00;;;19.10;99.90;;;;;;4984153;28;20031;-57
2022/09/26 12:00:08;;;;;;;3.95;1.13;;;20.50;99.90;;;;;;4981279;28;20102;-58
2022/09/26 12:03:00;;;;;;;8.90;1.70;;;21.40;99.90;;;;;;4987936;28;20390;-58
2022/09/26 12:05:35;;;;;;;;;;;20.70;99.90;;;;;;4986459;28;20033;-59
2022/09/26 12:08:33;;;;;;;5.05;1.45;;;19.10;99.90;;;;;;4985863;28;19910;-57
2022/09/26 12:11:21;;;;;;;7.93;1.30;;;17.90;99.90;;;;;;4984301;28;20506;-58
2022/09/26 12:14:03;;;;;;;5.82;0.93;;;17.00;99.90;;;;;;4978071;28;20034;-58
2022/09/26 12:16:45;;;;;;;5.97;1.60;;;16.50;99.90;;;;;;4984295;28;20036;-58
2022/09/26 12:19:41;;;;;;;7.53;1.63;;;16.20;99.90;;;;;;4985958;28;20398;-58
2022/09/26 12:22:29;;;;;;;6.88;1.63;;;16.00;99.90;;;;;;4979799;28;20034;-58
2022/09/26 12:25:13;;;;;;;8.63;1.00;;;15.80;99.90;;;;;;4982849;28;20018;-58
2022/09/26 12:27:56;;;;;;;7.18;1.75;;;15.80;99.90;;;;;;4982042;28;20030;-57
2022/09/26 12:30:32;;;;;;;3.50;1.27;;;15.60;99.90;;;;;;4985484;28;20073;-58
2022/09/26 12:33:36;;;;;;;4.30;0.82;;;15.80;99.90;;;;;;4985755;28;20026;-57
2022/09/26 12:36:23;;;;;;;4.68;0.88;;;15.80;99.90;;;;;;4985889;28;20101;-57
2022/09/26 12:39:03;;;;;;;4.63;1.02;;;15.90;99.90;;;;;;4982570;28;20022;-57
2022/09/26 12:41:36;;;;;;;6.88;1.40;;;16.20;99.90;;;;;;4979043;28;20086;-57
2022/09/26 12:44:40;;;;;;;8.68;1.10;;;16.40;99.90;;;;;;4985571;28;20065;-58
2022/09/26 12:47:42;;;;;;;4.55;0.60;;;17.00;99.90;;;;;;4985987;28;20050;-58
2022/09/26 12:50:17;;;;;;;6.35;1.48;;;17.00;99.90;;;;;;4984147;28;20025;-58
2022/09/26 12:53:20;;;;;;;3.15;0.70;;;16.80;99.90;;;;;;4984780;28;20105;-58
2022/09/26 12:56:08;;;;;;;4.90;1.25;;;16.50;99.90;;;;;;4983575;28;20037;-58
2022/09/26 12:58:40;;;;;;;3.08;1.17;;;16.50;99.90;;;;;;4980830;28;20427;-57
2022/09/26 13:01:42;;;;;;;3.38;0.73;;;16.50;99.90;;;;;;4985687;28;20037;-57
2022/09/26 13:04:25;;;;;;;2.63;0.60;;;16.40;99.90;;;;;;4983310;28;20101;-57
2022/09/26 13:07:22;;;;;;;4.97;0.77;;;16.30;99.90;;;;;;4983682;28;20042;-57
2022/09/26 13:10:14;;;;;;;6.90;0.95;;;16.30;99.90;;;;;;4982934;28;20687;-58
2022/09/26 13:12:46;;;;;;;2.47;0.57;;;16.20;99.90;;;;;;4983042;28;20046;-58
2022/09/26 13:15:31;;;;;;;4.18;0.35;;;16.50;99.90;;;;;;4986482;28;20046;-58
2022/09/26 13:18:19;;;;;;;2.33;0.40;;;18.60;99.90;;;;;;4976372;28;20522;-58
2022/09/26 13:20:50;;;;;;;11.57;1.25;;;18.50;99.90;;;;;;4982151;28;20023;-58
2022/09/26 13:23:42;;;;;;;2.95;0.40;;;18.10;99.90;;;;;;4986663;28;20048;-61
2022/09/26 13:26:18;;;;;;;1.85;0.32;;;17.60;99.90;;;;;;4983806;28;20029;-58
2022/09/26 13:28:56;;;;;;;4.47;0.52;;;16.80;99.90;;;;;;4980031;28;20041;-58
2022/09/26 13:31:28;;;;;;;0.82;0.35;;;16.30;99.90;;;;;;4984851;28;20026;-58
2022/09/26 13:34:11;;;;;;;1.33;0.40;;;15.70;99.90;;;;;;4982220;28;20149;-61